Time;durP1;ratioP1;P1;durP2;ratioP2;P2;SDS_P1;SDS_P2;PMS_P1;PMS_P2;Temp;Humidity;BMP_temperature;BMP_pressure;BME280_temperature;BME280_humidity;BME280_pressure;Samples;Min_cycle;Max_cycle;Signal;HPM_P1;HPM_P2
2023/12/21 00:01:15;;;;;;;3.20;2.85;;;4.70;1.00;;;;;;5114798;27;20227;-75
2023/12/21 00:03:42;;;;;;;3.42;2.80;;;4.70;1.00;;;;;;5113947;27;21129;-76
2023/12/21 00:06:09;;;;;;;4.00;2.90;;;4.70;1.00;;;;;;5113899;27;20234;-76
2023/12/21 00:08:36;;;;;;;5.75;3.05;;;4.70;1.00;;;;;;5117952;27;20274;-76
2023/12/21 00:11:06;;;;;;;3.50;3.20;;;4.70;1.00;;;;;;5114999;27;20232;-74
2023/12/21 00:13:33;;;;;;;3.45;3.15;;;4.80;1.00;;;;;;5112153;27;20320;-75
2023/12/21 00:16:00;;;;;;;4.30;3.90;;;4.80;1.00;;;;;;5117119;27;20332;-75
2023/12/21 00:18:28;;;;;;;6.50;4.28;;;4.80;1.00;;;;;;5114766;27;20254;-76
2023/12/21 00:20:55;;;;;;;5.63;4.80;;;4.90;1.00;;;;;;5117046;27;20862;-76
2023/12/21 00:23:21;;;;;;;5.80;4.55;;;4.90;1.00;;;;;;5118716;27;20243;-73
2023/12/21 00:25:48;;;;;;;6.65;5.15;;;5.00;1.00;;;;;;5113207;27;20293;-76
2023/12/21 00:28:17;;;;;;;6.57;5.15;;;5.00;1.00;;;;;;5115224;27;21140;-76
2023/12/21 00:30:44;;;;;;;5.97;5.40;;;5.00;1.00;;;;;;5116776;27;20335;-76
2023/12/21 00:33:10;;;;;;;6.03;5.10;;;5.10;1.00;;;;;;5113087;27;20240;-76
2023/12/21 00:35:38;;;;;;;7.32;6.18;;;5.10;1.00;;;;;;5118875;27;20330;-75
2023/12/21 00:38:05;;;;;;;7.30;5.75;;;5.20;1.00;;;;;;5116863;27;20356;-75
2023/12/21 00:40:32;;;;;;;7.00;5.05;;;5.20;1.00;;;;;;5114049;27;20325;-76
2023/12/21 00:42:59;;;;;;;7.25;5.32;;;5.30;1.00;;;;;;5112908;27;20274;-76
2023/12/21 00:45:27;;;;;;;5.82;5.00;;;5.40;1.00;;;;;;5115078;27;20232;-75
2023/12/21 00:47:55;;;;;;;7.00;4.60;;;5.40;1.00;;;;;;5117969;27;20254;-76
2023/12/21 00:50:22;;;;;;;5.90;5.40;;;5.40;1.00;;;;;;5111683;27;20244;-74
2023/12/21 00:52:49;;;;;;;6.18;5.57;;;5.50;1.00;;;;;;5116647;27;20235;-76
2023/12/21 00:55:16;;;;;;;6.43;5.13;;;5.50;1.00;;;;;;5110412;27;20406;-76
2023/12/21 00:57:43;;;;;;;5.20;4.70;;;5.60;1.00;;;;;;5113968;27;20264;-75
2023/12/21 01:00:11;;;;;;;5.93;5.00;;;5.60;1.00;;;;;;5118789;27;20238;-75
2023/12/21 01:02:40;;;;;;;5.57;4.38;;;5.70;1.00;;;;;;5111960;27;21462;-75
2023/12/21 01:05:07;;;;;;;6.90;4.30;;;5.70;1.00;;;;;;5115800;27;20738;-75
2023/12/21 01:07:34;;;;;;;4.30;3.90;;;5.80;1.00;;;;;;5113093;27;20247;-69
2023/12/21 01:10:01;;;;;;;7.00;5.00;;;5.80;1.00;;;;;;5112378;27;20590;-71
2023/12/21 01:12:32;;;;;;;6.28;4.50;;;5.90;1.00;;;;;;5117560;27;20383;-71
2023/12/21 01:15:00;;;;;;;4.60;3.97;;;5.90;1.00;;;;;;5110000;27;20267;-72
2023/12/21 01:17:27;;;;;;;8.35;3.60;;;6.00;1.00;;;;;;5110713;27;20255;-71
2023/12/21 01:19:55;;;;;;;4.90;3.80;;;6.00;1.00;;;;;;5108854;27;20321;-74
2023/12/21 01:22:24;;;;;;;4.32;3.58;;;6.00;1.00;;;;;;5110942;27;20244;-71
2023/12/21 01:24:51;;;;;;;7.32;4.20;;;6.10;1.00;;;;;;5106953;27;20246;-70
2023/12/21 01:27:20;;;;;;;3.47;3.17;;;6.10;1.00;;;;;;5107017;27;20790;-70
2023/12/21 01:29:47;;;;;;;4.70;3.58;;;6.20;1.00;;;;;;5116386;27;20230;-70
2023/12/21 01:32:14;;;;;;;3.22;2.92;;;6.30;1.00;;;;;;5118933;27;20767;-69
2023/12/21 01:34:41;;;;;;;4.68;3.05;;;6.30;1.00;;;;;;5112914;27;20331;-71
2023/12/21 01:37:09;;;;;;;3.55;2.60;;;6.30;1.00;;;;;;5110738;27;20268;-75
2023/12/21 01:39:36;;;;;;;2.97;2.33;;;6.40;1.00;;;;;;5112640;27;20243;-71
2023/12/21 01:42:03;;;;;;;3.22;2.22;;;6.40;1.00;;;;;;5105991;27;20331;-72
2023/12/21 01:44:30;;;;;;;3.90;2.40;;;6.40;1.00;;;;;;5110328;27;20354;-72
2023/12/21 01:46:57;;;;;;;3.00;2.17;;;6.50;1.00;;;;;;5115358;27;20242;-72
2023/12/21 01:49:25;;;;;;;3.08;2.20;;;6.60;1.00;;;;;;5113197;27;20250;-71
2023/12/21 01:51:52;;;;;;;2.47;2.28;;;6.60;1.00;;;;;;5108132;27;20264;-74
2023/12/21 01:54:21;;;;;;;3.30;2.20;;;6.60;1.00;;;;;;5114060;27;20333;-71
2023/12/21 01:56:48;;;;;;;2.40;2.20;;;6.60;1.00;;;;;;5112385;27;20234;-73
2023/12/21 01:59:15;;;;;;;2.80;2.38;;;6.70;1.00;;;;;;5112176;27;20738;-75
2023/12/21 02:01:42;;;;;;;2.25;1.90;;;6.70;1.00;;;;;;5111848;27;20233;-72
2023/12/21 02:04:09;;;;;;;3.63;2.10;;;6.70;1.00;;;;;;5110719;27;20266;-70
2023/12/21 02:06:36;;;;;;;1.63;1.50;;;6.80;1.00;;;;;;5108722;27;20335;-71
2023/12/21 02:09:03;;;;;;;2.40;1.90;;;6.80;1.00;;;;;;5111168;27;20331;-71
2023/12/21 02:11:31;;;;;;;3.50;1.73;;;6.80;1.00;;;;;;5111961;27;20304;-71
2023/12/21 02:13:58;;;;;;;2.30;1.75;;;6.90;1.00;;;;;;5110772;27;20290;-71
2023/12/21 02:16:32;;;;;;;1.70;1.55;;;6.90;1.00;;;;;;5110282;27;20246;-73
2023/12/21 02:18:59;;;;;;;1.80;1.67;;;6.90;1.00;;;;;;5112119;27;20245;-72
2023/12/21 02:21:29;;;;;;;1.80;1.70;;;6.90;1.00;;;;;;5107616;27;20503;-73
2023/12/21 02:23:59;;;;;;;3.20;1.90;;;6.90;1.00;;;;;;5111769;27;20467;-72
2023/12/21 02:26:28;;;;;;;1.70;1.60;;;7.00;1.00;;;;;;5097216;27;20464;-71
2023/12/21 02:28:55;;;;;;;1.73;1.63;;;7.00;1.00;;;;;;5110464;27;20238;-72
2023/12/21 02:31:22;;;;;;;2.00;1.85;;;7.00;1.00;;;;;;5110759;27;21285;-71
2023/12/21 02:33:49;;;;;;;2.00;1.60;;;7.00;1.00;;;;;;5113534;27;20323;-70
2023/12/21 02:36:15;;;;;;;2.67;1.80;;;7.10;1.00;;;;;;5111898;27;20251;-73
2023/12/21 02:38:43;;;;;;;1.93;1.80;;;7.10;1.00;;;;;;5115418;27;20337;-72
2023/12/21 02:41:10;;;;;;;1.70;1.50;;;7.10;1.00;;;;;;5108601;27;20468;-72
2023/12/21 02:43:39;;;;;;;1.90;1.80;;;7.10;1.00;;;;;;5108488;27;20450;-74
2023/12/21 02:46:06;;;;;;;1.65;1.35;;;7.20;1.00;;;;;;5110981;27;20271;-73
2023/12/21 02:48:33;;;;;;;1.63;1.53;;;7.20;1.00;;;;;;5111009;27;20295;-71
2023/12/21 02:51:01;;;;;;;1.80;1.27;;;7.20;1.00;;;;;;5108419;27;20566;-71
2023/12/21 02:53:28;;;;;;;1.65;1.55;;;7.20;1.00;;;;;;5112155;27;21326;-71
2023/12/21 02:55:55;;;;;;;1.20;1.10;;;7.20;1.00;;;;;;5107345;27;20738;-72
2023/12/21 02:58:23;;;;;;;1.63;1.30;;;7.20;1.00;;;;;;5113310;27;22132;-72
2023/12/21 03:00:51;;;;;;;1.97;1.20;;;7.20;1.00;;;;;;5111335;27;20549;-74
2023/12/21 03:03:18;;;;;;;1.25;1.15;;;7.30;1.00;;;;;;5109132;27;20477;-72
2023/12/21 03:05:46;;;;;;;1.88;1.30;;;7.30;1.00;;;;;;5112679;27;20326;-71
2023/12/21 03:08:12;;;;;;;1.63;1.30;;;7.30;1.00;;;;;;5112617;27;20285;-70
2023/12/21 03:10:39;;;;;;;1.48;1.30;;;7.30;1.00;;;;;;5114102;27;21081;-72
2023/12/21 03:13:06;;;;;;;1.30;1.20;;;7.30;1.00;;;;;;5116051;27;20684;-74
2023/12/21 03:15:33;;;;;;;1.77;1.17;;;7.30;1.00;;;;;;5111457;27;20458;-72
2023/12/21 03:18:01;;;;;;;1.50;1.40;;;7.30;1.00;;;;;;5109817;27;21166;-71
2023/12/21 03:20:28;;;;;;;1.97;1.60;;;7.30;1.00;;;;;;5114318;27;20475;-71
2023/12/21 03:22:55;;;;;;;1.58;1.48;;;7.30;1.00;;;;;;5113088;27;20555;-72
2023/12/21 03:25:22;;;;;;;1.13;1.00;;;7.40;1.00;;;;;;5108813;27;20238;-71
2023/12/21 03:27:49;;;;;;;1.83;1.73;;;7.40;1.00;;;;;;5113015;27;20589;-76
2023/12/21 03:30:16;;;;;;;1.40;1.30;;;7.40;1.00;;;;;;5109852;27;20547;-76
2023/12/21 03:32:43;;;;;;;1.77;1.48;;;7.40;1.00;;;;;;5117360;27;20292;-74
2023/12/21 03:35:12;;;;;;;1.58;1.48;;;7.40;1.00;;;;;;5115269;27;20336;-75
2023/12/21 03:37:39;;;;;;;1.70;1.60;;;7.40;1.00;;;;;;5112029;27;20241;-75
2023/12/21 03:40:08;;;;;;;1.87;1.70;;;7.40;1.00;;;;;;5114604;27;20481;-77
2023/12/21 03:42:35;;;;;;;1.63;1.53;;;7.50;1.00;;;;;;5115501;27;20462;-76
2023/12/21 03:45:02;;;;;;;1.53;1.43;;;7.50;1.00;;;;;;5112943;27;22060;-73
2023/12/21 03:47:29;;;;;;;2.10;2.00;;;7.50;1.00;;;;;;5115117;27;20921;-75
2023/12/21 03:49:56;;;;;;;1.93;1.70;;;7.50;1.00;;;;;;5109255;27;20461;-77
2023/12/21 03:52:24;;;;;;;2.30;2.20;;;7.50;1.00;;;;;;5113521;27;21301;-76
2023/12/21 03:54:51;;;;;;;2.37;2.20;;;7.50;1.00;;;;;;5112117;27;21229;-76
2023/12/21 03:57:18;;;;;;;3.03;2.03;;;7.50;1.00;;;;;;5115643;27;20540;-75
2023/12/21 03:59:45;;;;;;;1.80;1.70;;;7.50;1.00;;;;;;5112153;27;20465;-76
2023/12/21 04:02:12;;;;;;;2.63;2.43;;;7.60;1.00;;;;;;5112574;27;21183;-76
2023/12/21 04:04:38;;;;;;;1.83;1.73;;;7.60;1.00;;;;;;5113542;27;20428;-76
2023/12/21 04:07:06;;;;;;;2.37;2.17;;;7.60;1.00;;;;;;5112787;27;20461;-75
2023/12/21 04:09:34;;;;;;;3.00;2.80;;;7.60;1.00;;;;;;5114152;27;20524;-77
2023/12/21 04:12:01;;;;;;;2.43;2.23;;;7.60;1.00;;;;;;5108541;27;20462;-75
2023/12/21 04:14:28;;;;;;;2.17;2.00;;;7.70;1.00;;;;;;5113596;27;20456;-76
2023/12/21 04:16:55;;;;;;;2.30;2.10;;;7.70;1.00;;;;;;5115670;27;20542;-76
2023/12/21 04:19:22;;;;;;;3.90;1.90;;;7.70;1.00;;;;;;5116612;27;20486;-76
2023/12/21 04:21:48;;;;;;;2.10;1.80;;;7.70;1.00;;;;;;5116674;27;20454;-76
2023/12/21 04:24:16;;;;;;;3.60;2.10;;;7.80;1.00;;;;;;5112690;27;20535;-75
2023/12/21 04:26:44;;;;;;;2.27;2.07;;;7.80;1.00;;;;;;5114071;27;21112;-76
2023/12/21 04:29:11;;;;;;;2.10;1.90;;;7.80;1.00;;;;;;5112723;27;20462;-74
2023/12/21 04:31:42;;;;;;;2.20;2.00;;;7.80;1.00;;;;;;5113628;27;20449;-75
2023/12/21 04:34:09;;;;;;;2.37;2.17;;;7.80;1.00;;;;;;5114701;27;20445;-76
2023/12/21 04:36:37;;;;;;;2.30;2.10;;;7.90;1.00;;;;;;5117699;27;20549;-70
2023/12/21 04:39:04;;;;;;;2.00;1.90;;;7.90;1.00;;;;;;5108561;27;20482;-72
2023/12/21 04:41:31;;;;;;;2.27;2.07;;;7.90;1.00;;;;;;5112125;27;20559;-70
2023/12/21 04:44:00;;;;;;;2.40;2.20;;;7.90;1.00;;;;;;5115339;27;20925;-70
2023/12/21 04:46:28;;;;;;;2.60;2.40;;;7.90;1.00;;;;;;5112562;27;20578;-69
2023/12/21 04:48:55;;;;;;;2.80;2.60;;;8.00;1.00;;;;;;5107923;27;20489;-70
2023/12/21 04:51:22;;;;;;;2.30;2.20;;;8.00;1.00;;;;;;5113108;27;21039;-70
2023/12/21 04:53:49;;;;;;;2.30;2.10;;;8.00;1.00;;;;;;5111033;27;20457;-72
2023/12/21 04:56:16;;;;;;;2.43;2.23;;;8.00;1.00;;;;;;5108991;27;20474;-70
2023/12/21 04:58:43;;;;;;;2.50;2.30;;;8.00;1.00;;;;;;5112012;27;20509;-70
2023/12/21 05:01:11;;;;;;;2.73;2.53;;;8.00;1.00;;;;;;5112994;27;21032;-70
2023/12/21 05:03:38;;;;;;;2.70;2.20;;;8.10;1.00;;;;;;5106176;27;21161;-73
2023/12/21 05:06:06;;;;;;;3.10;2.80;;;8.10;1.00;;;;;;5107435;27;20567;-70
2023/12/21 05:08:33;;;;;;;2.40;2.20;;;8.10;1.00;;;;;;5107955;27;20577;-71
2023/12/21 05:11:00;;;;;;;2.10;2.00;;;8.20;1.00;;;;;;5109060;27;20575;-71
2023/12/21 05:13:27;;;;;;;3.03;2.43;;;8.20;1.00;;;;;;5108279;27;20470;-72
2023/12/21 05:15:54;;;;;;;2.93;2.73;;;8.20;1.00;;;;;;5113533;27;20473;-70
2023/12/21 05:18:23;;;;;;;2.17;1.97;;;8.20;1.00;;;;;;5113187;27;21233;-69
2023/12/21 05:20:50;;;;;;;2.63;2.43;;;8.20;1.00;;;;;;5109253;27;20453;-75
2023/12/21 05:23:17;;;;;;;2.40;2.20;;;8.30;1.00;;;;;;5108473;27;20466;-70
2023/12/21 05:25:44;;;;;;;2.10;2.00;;;8.30;1.00;;;;;;5101106;27;20478;-71
2023/12/21 05:28:13;;;;;;;2.50;2.30;;;8.30;1.00;;;;;;5108349;27;20488;-71
2023/12/21 05:30:40;;;;;;;2.20;2.00;;;8.30;1.00;;;;;;5110523;27;20533;-71
2023/12/21 05:33:07;;;;;;;2.30;2.10;;;8.30;1.00;;;;;;5112412;27;20610;-70
2023/12/21 05:35:36;;;;;;;2.10;1.90;;;8.20;1.00;;;;;;5111280;27;20453;-72
2023/12/21 05:38:03;;;;;;;2.63;1.90;;;8.30;1.00;;;;;;5106715;27;20534;-69
2023/12/21 05:40:30;;;;;;;1.97;1.77;;;8.30;1.00;;;;;;5112377;27;20449;-70
2023/12/21 05:42:57;;;;;;;2.67;2.20;;;8.30;1.00;;;;;;5107148;27;21084;-69
2023/12/21 05:45:24;;;;;;;2.30;2.10;;;8.30;1.00;;;;;;5109969;27;20441;-71
2023/12/21 05:47:58;;;;;;;1.97;1.87;;;8.30;1.00;;;;;;5112948;27;20559;-74
2023/12/21 05:50:25;;;;;;;3.03;1.67;;;8.30;1.00;;;;;;5111786;27;20444;-74
2023/12/21 05:52:53;;;;;;;3.43;2.90;;;8.30;1.00;;;;;;5112495;27;20525;-74
2023/12/21 05:55:21;;;;;;;1.83;1.73;;;8.40;1.00;;;;;;5110196;27;20665;-75
2023/12/21 05:57:48;;;;;;;2.47;2.20;;;8.40;1.00;;;;;;5108793;27;20453;-74
2023/12/21 06:00:16;;;;;;;2.20;1.80;;;8.40;1.00;;;;;;5096898;27;21739;-75
2023/12/21 06:02:43;;;;;;;1.90;1.67;;;8.40;1.00;;;;;;5110694;27;20477;-75
2023/12/21 06:05:10;;;;;;;3.63;2.07;;;8.40;1.00;;;;;;5107972;27;20477;-74
2023/12/21 06:07:40;;;;;;;2.20;2.10;;;8.40;1.00;;;;;;5112647;27;20947;-76
2023/12/21 06:10:10;;;;;;;1.63;1.40;;;8.40;1.00;;;;;;5104490;27;20471;-75
2023/12/21 06:12:37;;;;;;;1.90;1.80;;;8.40;1.00;;;;;;5113476;27;20497;-75
2023/12/21 06:15:04;;;;;;;3.57;1.70;;;8.40;1.00;;;;;;5106337;27;20562;-75
2023/12/21 06:17:31;;;;;;;2.37;1.60;;;8.40;1.00;;;;;;5105685;27;20489;-77
2023/12/21 06:19:58;;;;;;;2.10;1.87;;;8.50;1.00;;;;;;5110714;27;20450;-74
2023/12/21 06:22:25;;;;;;;2.20;2.10;;;8.50;1.00;;;;;;5111541;27;20545;-76
2023/12/21 06:24:52;;;;;;;2.50;2.00;;;8.50;1.00;;;;;;5111729;27;20533;-75
2023/12/21 06:27:20;;;;;;;2.20;2.00;;;8.50;1.00;;;;;;5110641;27;20554;-75
2023/12/21 06:29:48;;;;;;;3.03;2.73;;;8.50;1.00;;;;;;5111831;27;20504;-76
2023/12/21 06:32:15;;;;;;;2.50;1.83;;;8.50;1.00;;;;;;5110145;27;20498;-75
2023/12/21 06:34:42;;;;;;;2.10;2.00;;;8.60;1.00;;;;;;5110637;27;20490;-74
2023/12/21 06:37:09;;;;;;;3.40;2.77;;;8.60;1.00;;;;;;5108777;27;20501;-74
2023/12/21 06:39:36;;;;;;;3.97;2.07;;;8.60;1.00;;;;;;5110361;27;20560;-75
2023/12/21 06:42:06;;;;;;;2.53;1.80;;;8.60;1.00;;;;;;5111738;27;20543;-75
2023/12/21 06:44:34;;;;;;;2.17;1.73;;;8.60;1.00;;;;;;5111293;27;20744;-75
2023/12/21 06:47:01;;;;;;;2.27;1.77;;;8.60;1.00;;;;;;5109531;27;20464;-74
2023/12/21 06:49:29;;;;;;;2.00;1.80;;;8.50;1.00;;;;;;5105829;27;20465;-75
2023/12/21 06:51:59;;;;;;;2.50;2.30;;;8.60;1.00;;;;;;5108618;27;20548;-75
2023/12/21 06:54:26;;;;;;;2.20;2.07;;;8.60;1.00;;;;;;5108269;27;20454;-75
2023/12/21 06:56:53;;;;;;;2.80;2.60;;;8.60;1.00;;;;;;5105327;27;20512;-69
2023/12/21 06:59:21;;;;;;;3.60;2.50;;;8.50;1.00;;;;;;5112302;27;20553;-69
2023/12/21 07:01:50;;;;;;;2.50;2.30;;;8.40;1.00;;;;;;5108030;27;20476;-74
2023/12/21 07:04:17;;;;;;;2.03;1.83;;;8.30;1.00;;;;;;5109547;27;20454;-71
2023/12/21 07:06:46;;;;;;;2.97;2.10;;;8.20;1.00;;;;;;5102081;27;21091;-69
2023/12/21 07:09:14;;;;;;;2.00;1.80;;;8.20;1.00;;;;;;5107071;27;20499;-72
2023/12/21 07:11:40;;;;;;;2.50;2.30;;;8.10;1.00;;;;;;5109693;27;21076;-70
2023/12/21 07:14:06;;;;;;;2.50;2.30;;;8.00;1.00;;;;;;5109988;27;20542;-69
2023/12/21 07:16:33;;;;;;;2.10;1.90;;;8.00;1.00;;;;;;5109757;27;20473;-73
2023/12/21 07:19:02;;;;;;;2.90;1.70;;;8.00;1.00;;;;;;5105917;27;20556;-70
2023/12/21 07:21:29;;;;;;;1.93;1.73;;;8.00;1.00;;;;;;5114227;27;20450;-71
2023/12/21 07:23:57;;;;;;;2.77;2.10;;;7.90;1.00;;;;;;5111745;27;20458;-73
2023/12/21 07:26:26;;;;;;;1.70;1.60;;;7.90;1.00;;;;;;5106133;27;22577;-69
2023/12/21 07:28:54;;;;;;;2.50;2.25;;;7.90;1.00;;;;;;5110660;27;20567;-69
2023/12/21 07:31:21;;;;;;;3.33;2.80;;;7.80;1.00;;;;;;5109772;27;20238;-73
2023/12/21 07:33:48;;;;;;;2.07;1.87;;;7.80;1.00;;;;;;5108440;27;20511;-71
2023/12/21 07:36:17;;;;;;;2.20;2.10;;;7.80;1.00;;;;;;5107522;27;20559;-70
2023/12/21 07:38:44;;;;;;;2.03;1.70;;;7.80;1.00;;;;;;5107711;27;20448;-68
2023/12/21 07:41:12;;;;;;;1.70;1.60;;;7.80;1.00;;;;;;5101568;27;20452;-70
2023/12/21 07:43:41;;;;;;;1.80;1.53;;;7.80;1.00;;;;;;5107925;27;20462;-68
2023/12/21 07:46:09;;;;;;;1.70;1.60;;;7.80;1.00;;;;;;5112629;27;20481;-71
2023/12/21 07:48:36;;;;;;;2.63;2.00;;;7.80;1.00;;;;;;5113002;27;20910;-73
2023/12/21 07:51:04;;;;;;;4.53;3.40;;;7.80;1.00;;;;;;5104157;27;20327;-71
2023/12/21 07:53:32;;;;;;;1.90;1.80;;;7.80;1.00;;;;;;5113506;27;20511;-70
2023/12/21 07:55:59;;;;;;;1.80;1.70;;;7.80;1.00;;;;;;5111116;27;20435;-70
2023/12/21 07:58:26;;;;;;;1.73;1.50;;;7.90;1.00;;;;;;5112846;27;20476;-70
2023/12/21 08:00:53;;;;;;;2.07;1.97;;;7.90;1.00;;;;;;5111040;27;20230;-71
2023/12/21 08:03:20;;;;;;;2.00;1.80;;;7.80;1.00;;;;;;5110827;27;20478;-69
2023/12/21 08:05:47;;;;;;;1.97;1.87;;;7.90;1.00;;;;;;5111468;27;20466;-74
2023/12/21 08:08:14;;;;;;;3.88;1.63;;;7.80;1.00;;;;;;5111243;27;20451;-70
2023/12/21 08:10:43;;;;;;;2.20;1.42;;;7.80;1.00;;;;;;5110879;27;20235;-73
2023/12/21 08:13:13;;;;;;;2.50;2.10;;;7.80;1.00;;;;;;5111492;27;20739;-70
2023/12/21 08:15:40;;;;;;;1.50;1.40;;;7.80;1.00;;;;;;5112475;27;20917;-70
2023/12/21 08:18:07;;;;;;;1.87;1.77;;;7.80;1.00;;;;;;5114671;27;20997;-71
2023/12/21 08:20:36;;;;;;;2.60;1.93;;;7.80;1.00;;;;;;5109193;27;20446;-75
2023/12/21 08:23:03;;;;;;;1.80;1.67;;;7.80;1.00;;;;;;5109561;27;20441;-71
2023/12/21 08:25:31;;;;;;;1.40;1.30;;;7.90;1.00;;;;;;5108599;27;20584;-71
2023/12/21 08:28:00;;;;;;;1.70;1.60;;;7.90;1.00;;;;;;5110655;27;20453;-72
2023/12/21 08:30:27;;;;;;;1.50;1.40;;;7.90;1.00;;;;;;5109246;27;20426;-73
2023/12/21 08:32:54;;;;;;;2.30;2.10;;;7.90;1.00;;;;;;5111384;27;20488;-73
2023/12/21 08:35:21;;;;;;;1.47;1.37;;;7.90;1.00;;;;;;5101545;27;21335;-73
2023/12/21 08:37:48;;;;;;;3.60;2.47;;;7.90;1.00;;;;;;5110325;27;20520;-73
2023/12/21 08:40:16;;;;;;;1.13;1.02;;;7.90;1.00;;;;;;5106301;27;20925;-73
2023/12/21 08:42:43;;;;;;;2.40;1.33;;;7.90;1.00;;;;;;5114473;27;20325;-74
2023/12/21 08:45:12;;;;;;;3.00;1.50;;;7.90;1.00;;;;;;5115006;27;20472;-74
2023/12/21 08:47:40;;;;;;;1.20;1.10;;;7.90;1.00;;;;;;5100568;27;20441;-74
2023/12/21 08:50:08;;;;;;;1.50;1.00;;;7.90;1.00;;;;;;5112315;27;20450;-73
2023/12/21 08:52:36;;;;;;;1.40;1.10;;;8.00;1.00;;;;;;5114199;27;21033;-72
2023/12/21 08:55:05;;;;;;;0.93;0.80;;;8.00;1.00;;;;;;5112007;27;20464;-73
2023/12/21 08:57:36;;;;;;;1.92;1.27;;;8.00;1.00;;;;;;5107793;27;20857;-73
2023/12/21 09:00:05;;;;;;;1.40;1.30;;;8.00;1.00;;;;;;5112270;27;20242;-72
2023/12/21 09:02:34;;;;;;;0.97;0.70;;;8.00;1.00;;;;;;5111197;27;20466;-74
2023/12/21 09:05:02;;;;;;;3.33;0.80;;;8.00;1.00;;;;;;5114017;27;21295;-75
2023/12/21 09:07:29;;;;;;;1.05;0.95;;;8.00;1.00;;;;;;5115170;27;21151;-72
2023/12/21 09:09:59;;;;;;;1.07;0.70;;;8.00;1.00;;;;;;5112342;27;20246;-72
2023/12/21 09:12:28;;;;;;;1.60;1.17;;;7.90;1.00;;;;;;5099332;27;20479;-72
2023/12/21 09:14:55;;;;;;;1.20;0.70;;;8.00;1.00;;;;;;5112245;27;20500;-75
2023/12/21 09:17:22;;;;;;;1.38;0.73;;;8.00;1.00;;;;;;5100555;27;20465;-74
2023/12/21 09:19:50;;;;;;;1.40;1.10;;;8.00;1.00;;;;;;5098646;27;20292;-72
2023/12/21 09:22:18;;;;;;;1.40;0.77;;;8.00;1.00;;;;;;5101460;27;20551;-72
2023/12/21 09:24:45;;;;;;;1.40;0.80;;;8.00;1.00;;;;;;5107851;27;20533;-74
2023/12/21 09:27:14;;;;;;;0.90;0.73;;;8.00;1.00;;;;;;5110455;27;20553;-76
2023/12/21 09:29:42;;;;;;;1.00;0.80;;;8.00;1.00;;;;;;5111537;27;20964;-76
2023/12/21 09:32:10;;;;;;;1.43;1.00;;;8.10;1.00;;;;;;5112061;27;20469;-77
2023/12/21 09:34:38;;;;;;;1.30;0.90;;;8.10;1.00;;;;;;5114886;27;21223;-76
2023/12/21 09:37:08;;;;;;;2.70;1.10;;;8.10;1.00;;;;;;5112440;27;20442;-75
2023/12/21 09:39:36;;;;;;;0.90;0.80;;;8.10;1.00;;;;;;5111150;27;20474;-76
2023/12/21 09:42:03;;;;;;;1.40;0.70;;;8.10;1.00;;;;;;5111799;27;21078;-75
2023/12/21 09:44:32;;;;;;;1.30;1.00;;;8.10;1.00;;;;;;5111568;27;20465;-74
2023/12/21 09:47:01;;;;;;;1.40;0.83;;;8.10;1.00;;;;;;5115392;27;21022;-75
2023/12/21 09:49:29;;;;;;;0.73;0.53;;;8.20;1.00;;;;;;5109480;27;21135;-76
2023/12/21 09:51:57;;;;;;;1.23;1.10;;;8.20;1.00;;;;;;5114292;27;20465;-74
2023/12/21 09:54:26;;;;;;;1.87;1.27;;;8.20;1.00;;;;;;5112748;27;20450;-74
2023/12/21 09:56:53;;;;;;;2.40;0.80;;;8.20;1.00;;;;;;5110942;27;20428;-74
2023/12/21 09:59:27;;;;;;;0.97;0.87;;;8.20;1.00;;;;;;5105866;27;21266;-76
2023/12/21 10:01:55;;;;;;;1.20;0.80;;;8.20;1.00;;;;;;5111513;27;21284;-75
2023/12/21 10:04:22;;;;;;;0.70;0.63;;;8.20;1.00;;;;;;5112791;27;20540;-75
2023/12/21 10:06:49;;;;;;;2.07;1.20;;;8.20;1.00;;;;;;5110877;27;20449;-73
2023/12/21 10:09:18;;;;;;;0.90;0.50;;;8.20;1.00;;;;;;5109512;27;20551;-75
2023/12/21 10:11:46;;;;;;;0.80;0.63;;;8.20;1.00;;;;;;5110666;27;20534;-77
2023/12/21 10:14:17;;;;;;;1.10;0.63;;;8.30;1.00;;;;;;5109769;27;20550;-76
2023/12/21 10:16:44;;;;;;;1.93;0.90;;;8.30;1.00;;;;;;5110431;27;20450;-77
2023/12/21 10:19:12;;;;;;;3.33;1.57;;;8.40;1.00;;;;;;5107044;27;20445;-75
2023/12/21 10:21:40;;;;;;;2.97;1.67;;;8.30;1.00;;;;;;5113118;27;20470;-78
2023/12/21 10:24:08;;;;;;;1.77;0.90;;;8.30;1.00;;;;;;5112395;27;20561;-75
2023/12/21 10:26:43;;;;;;;0.70;0.50;;;8.30;1.00;;;;;;5110962;27;20999;-74
2023/12/21 10:29:14;;;;;;;3.10;0.77;;;8.30;1.00;;;;;;5113465;27;20456;-74
2023/12/21 10:31:44;;;;;;;1.23;0.60;;;8.30;1.00;;;;;;5097988;27;20549;-74
2023/12/21 10:34:11;;;;;;;1.93;1.00;;;8.30;1.00;;;;;;5110171;27;20549;-77
2023/12/21 10:36:44;;;;;;;1.47;1.17;;;8.30;1.00;;;;;;5111051;27;20462;-75
2023/12/21 10:39:12;;;;;;;2.03;1.27;;;8.40;1.00;;;;;;5109108;27;20571;-77
2023/12/21 10:41:43;;;;;;;1.40;0.80;;;8.50;1.00;;;;;;5110458;27;20546;-77
2023/12/21 10:44:12;;;;;;;0.80;0.40;;;8.50;1.00;;;;;;5111443;27;20535;-75
2023/12/21 10:46:41;;;;;;;2.00;0.70;;;8.50;1.00;;;;;;5110874;27;22289;-74
2023/12/21 10:49:10;;;;;;;0.90;0.70;;;8.50;1.00;;;;;;5111977;27;20514;-75
2023/12/21 10:51:39;;;;;;;1.17;0.80;;;8.50;1.00;;;;;;5110156;27;20507;-74
2023/12/21 10:54:08;;;;;;;0.80;0.50;;;8.50;1.00;;;;;;5108266;27;20473;-75
2023/12/21 10:56:38;;;;;;;1.07;0.60;;;8.50;1.00;;;;;;5111527;27;20460;-77
2023/12/21 10:59:06;;;;;;;1.17;0.70;;;8.50;1.00;;;;;;5108358;27;20461;-75
2023/12/21 11:01:36;;;;;;;1.90;0.90;;;8.40;1.00;;;;;;5107088;27;21525;-76
2023/12/21 11:04:04;;;;;;;2.20;0.60;;;8.50;1.00;;;;;;5109483;27;20534;-75
2023/12/21 11:06:33;;;;;;;0.87;0.50;;;8.50;1.00;;;;;;5109883;27;20941;-76
2023/12/21 11:09:03;;;;;;;1.80;0.90;;;8.50;1.00;;;;;;5107829;27;20470;-76
2023/12/21 11:11:32;;;;;;;1.10;0.90;;;8.50;1.00;;;;;;5110144;27;20445;-75
2023/12/21 11:13:59;;;;;;;1.53;0.97;;;8.50;1.00;;;;;;5110241;27;20454;-77
2023/12/21 11:16:30;;;;;;;1.20;0.60;;;8.50;1.00;;;;;;5111193;27;20442;-75
2023/12/21 11:19:04;;;;;;;0.80;0.40;;;8.50;1.00;;;;;;5107118;27;20432;-76
2023/12/21 11:21:33;;;;;;;0.77;0.50;;;8.50;1.00;;;;;;5108637;27;20465;-75
2023/12/21 11:24:02;;;;;;;1.23;0.60;;;8.50;1.00;;;;;;5112715;27;20629;-73
2023/12/21 11:26:29;;;;;;;1.77;1.10;;;8.60;1.00;;;;;;5109955;27;20504;-75
2023/12/21 11:29:06;;;;;;;1.13;1.03;;;8.50;1.00;;;;;;5110016;27;20462;-75
2023/12/21 11:31:40;;;;;;;1.00;0.80;;;8.50;1.00;;;;;;5108865;27;20581;-76
2023/12/21 11:34:16;;;;;;;1.67;0.70;;;8.60;1.00;;;;;;5108633;27;20648;-76
2023/12/21 11:36:43;;;;;;;1.60;0.70;;;8.60;1.00;;;;;;5114312;27;20538;-76
2023/12/21 11:39:12;;;;;;;1.07;0.57;;;8.60;1.00;;;;;;5113457;27;20493;-76
2023/12/21 11:41:50;;;;;;;2.00;0.90;;;8.60;1.00;;;;;;5112993;27;20457;-76
2023/12/21 11:44:17;;;;;;;2.10;0.90;;;8.70;1.00;;;;;;5110537;27;20465;-75
2023/12/21 11:46:46;;;;;;;1.00;0.90;;;8.70;1.00;;;;;;5108353;27;20469;-72
2023/12/21 11:49:22;;;;;;;1.10;0.70;;;8.70;1.00;;;;;;5108335;27;20985;-71
2023/12/21 11:51:50;;;;;;;1.00;0.60;;;8.80;1.00;;;;;;5110999;27;20967;-72
2023/12/21 11:54:21;;;;;;;0.70;0.60;;;8.80;1.00;;;;;;5113290;27;20481;-70
2023/12/21 11:56:48;;;;;;;1.00;0.60;;;8.80;1.00;;;;;;5110569;27;20961;-71
2023/12/21 11:59:16;;;;;;;0.90;0.70;;;8.80;1.00;;;;;;5112047;27;21049;-71
2023/12/21 12:01:46;;;;;;;0.80;0.77;;;8.80;1.00;;;;;;5109424;27;20964;-71
2023/12/21 12:04:15;;;;;;;1.00;0.60;;;8.80;1.00;;;;;;5110839;27;20512;-71
2023/12/21 12:06:44;;;;;;;1.30;1.10;;;8.80;1.00;;;;;;5113379;27;20477;-72
2023/12/21 12:09:11;;;;;;;0.90;0.70;;;8.80;1.00;;;;;;5110457;27;20904;-74
2023/12/21 12:11:38;;;;;;;1.40;1.20;;;8.80;1.00;;;;;;5107826;27;20449;-74
2023/12/21 12:14:05;;;;;;;0.90;0.50;;;8.80;1.00;;;;;;5108644;27;21325;-71
2023/12/21 12:16:33;;;;;;;1.60;1.00;;;8.80;1.00;;;;;;5073546;27;1207740;-71
2023/12/21 12:19:00;;;;;;;1.60;0.83;;;8.80;1.00;;;;;;5113766;27;20313;-72
2023/12/21 12:21:29;;;;;;;4.33;4.03;;;8.80;1.00;;;;;;5109862;27;20449;-71
2023/12/21 12:23:56;;;;;;;2.87;1.00;;;8.90;1.00;;;;;;5111856;27;20652;-72
2023/12/21 12:26:23;;;;;;;0.80;0.50;;;8.90;1.00;;;;;;5111561;27;20484;-72
2023/12/21 12:28:51;;;;;;;2.03;0.93;;;9.00;1.00;;;;;;5112424;27;20549;-70
2023/12/21 12:31:18;;;;;;;1.47;0.80;;;8.90;1.00;;;;;;5111045;27;20586;-72
2023/12/21 12:33:47;;;;;;;1.20;0.80;;;8.90;1.00;;;;;;5113233;27;20536;-73
2023/12/21 12:36:16;;;;;;;1.67;1.10;;;8.90;1.00;;;;;;5111600;27;20432;-71
2023/12/21 12:38:45;;;;;;;1.10;0.50;;;8.90;1.00;;;;;;5114680;27;20472;-71
2023/12/21 12:41:13;;;;;;;0.90;0.60;;;8.90;1.00;;;;;;5112107;27;20414;-73
2023/12/21 12:43:40;;;;;;;1.20;1.00;;;8.90;1.00;;;;;;5110173;27;21067;-71
2023/12/21 12:46:07;;;;;;;3.53;0.80;;;8.90;1.00;;;;;;5112283;27;20462;-71
2023/12/21 12:48:34;;;;;;;3.77;1.00;;;8.90;1.00;;;;;;5109985;27;20449;-72
2023/12/21 12:51:01;;;;;;;3.60;2.50;;;8.90;1.00;;;;;;5109591;27;20454;-71
2023/12/21 12:53:29;;;;;;;2.67;1.23;;;8.90;1.00;;;;;;5109231;27;20872;-70
2023/12/21 12:55:59;;;;;;;1.37;0.80;;;8.90;1.00;;;;;;5108838;27;20463;-70
2023/12/21 12:58:31;;;;;;;0.90;0.70;;;8.90;1.00;;;;;;5108866;27;20957;-71
2023/12/21 13:00:58;;;;;;;0.93;0.60;;;8.90;1.00;;;;;;5108022;27;21214;-70
2023/12/21 13:03:26;;;;;;;1.07;0.93;;;8.90;1.00;;;;;;5108574;27;20571;-69
2023/12/21 13:05:53;;;;;;;0.90;0.70;;;8.90;1.00;;;;;;5108763;27;20576;-69
2023/12/21 13:08:23;;;;;;;1.33;0.80;;;8.90;1.00;;;;;;5107548;27;20454;-72
2023/12/21 13:10:50;;;;;;;1.53;0.80;;;9.00;1.00;;;;;;5107699;27;20981;-71